Howard City, MI (49329)

2:56 PM EST on February 06, 2016 (GMT -0500)
Ensley Center - Snow Farm | | Change Station
CLOSE
Current Station
Personal Weather Station
Location: Howard City, MI
Elevation: 982 ft
Nearby Weather Stations

Elev 982 ft 43.36 °N, 85.62 °W | Updated 1 minute ago

Overcast
Overcast
32.4 °F
Feels Like 24 °F
N
11.4
Wind Variable Wind from SW

Today
High -- | Low -- °F
--% Chance of Precip.
Yesterday
High -- | Low -- °F
Precip. -- in
Pressure 30.10 in
Visibility 10.0 miles
Clouds Overcast 1900 ft
Windchill 24 °F
Dew Point 28 °F
Humidity 84%
Rainfall 0.00 in
Snow Depth Not available.
7:52 AM 5:59 PM
Waning Crescent, 4% visible
METAR KRQB 061935Z AUTO 24011G17KT 10SM OVC019 00/M03 A3010 RMK AO2 T00001032
Pressure 30.10 in
Visibility 10.0 miles
Clouds Overcast 1900 ft
Windchill 24 °F
Dew Point 28 °F
Humidity 84%
Rainfall 0.00 in
Snow Depth Not available.
7:52 AM 5:59 PM
Waning Crescent, 4% visible
METAR KRQB 061935Z AUTO 24011G17KT 10SM OVC019 00/M03 A3010 RMK AO2 T00001032

10-Day Weather Forecast

Almanac

Astronomy

Feb. 06, 2016 Rise Set
Actual Time
Civil Twilight
Nautical Twilight
Astronomical Twilight
Moon
Length of Visible Light
Length of Day
Tomorrow will be .
, % of the Moon is Illuminated

Today's Extremes

State Highs State Lows

Community

WunderPhotos

Upload Photos

1,891,037 photos uploaded!

WunderBlog® & News

Nearby

Air Quality

  Air Quality AQ Index Pollutant
Not available.

Snow Depth

Station Depth Elevation

Earthquake Activity

City Distance Mag. Time & Date
Minimum magnitude displayed is 2.5.

Coastal Water Temperatures

Place Temperature

Stations

Nearby Weather Stations

Station Location Temp. Windchill Dew Point Humidity Wind Precip. Elev Updated Type
                   

Watches & Warnings

There are currently no watches in effect.